Washburn, IA (50706)

7:19 PM CDT on July 23, 2016 (GMT -0500)
Washburn | | Change Station

Elev 843 ft 42.41 °N, 92.27 °W | Updated 15 seconds ago

Partly Cloudy
Partly Cloudy
75.6 °F
Feels Like 75 °F
N
0.0
Wind Variable Wind from West

Today
High -- | Low -- °F
--% Chance of Precip.
Yesterday
High -- | Low -- °F
Precip. -- in
Pressure 29.80 in
Visibility 10.0 miles
Clouds Few 900 ft
Heat Index 75 °F
Dew Point 73 °F
Humidity 93%
Rainfall 1.96 in
Snow Depth Not available.
5:53 AM 8:37 PM
Waning Gibbous, 81% visible
METAR KALO 232354Z AUTO 12007KT 10SM FEW009 26/23 A2982 RMK AO2 SLP090 60059 T02560228 10294 20228 56015
Pressure 29.80 in
Visibility 10.0 miles
Clouds Few 900 ft
Heat Index 75 °F
Dew Point 73 °F
Humidity 93%
Rainfall 1.96 in
Snow Depth Not available.
5:53 AM 8:37 PM
Waning Gibbous, 81% visible
METAR KALO 232354Z AUTO 12007KT 10SM FEW009 26/23 A2982 RMK AO2 SLP090 60059 T02560228 10294 20228 56015

10-Day Weather Forecast

Almanac

Astronomy

Jul. 23, 2016 Rise Set
Actual Time
Civil Twilight
Nautical Twilight
Astronomical Twilight
Moon
Length of Visible Light
Length of Day
Tomorrow will be .
, % of the Moon is Illuminated

Today's Extremes

State Highs State Lows

Community

WunderPhotos

Upload Photos

1,926,979 photos uploaded!

WunderBlog® & News

Nearby

Air Quality

  Air Quality AQ Index Pollutant
Not available.

Snow Depth

Station Depth Elevation

Earthquake Activity

City Distance Mag. Time & Date
Minimum magnitude displayed is 2.5.

Coastal Water Temperatures

Place Temperature

Stations

Nearby Weather Stations

Station Location Temp. Windchill Dew Point Humidity Wind Precip. Elev Updated Type
                   

Watches & Warnings

There are currently no watches in effect.